sensor_id;sensor_type;location;lat;lon;timestamp;P1;durP1;ratioP1;P2;durP2;ratioP2
60919;SDS011;59039;52.108;19.942;2022-08-25T00:04:02;15.30;;;5.50;;
60919;SDS011;59039;52.108;19.942;2022-08-25T00:06:30;11.20;;;5.60;;
60919;SDS011;59039;52.108;19.942;2022-08-25T00:08:58;12.60;;;5.80;;
60919;SDS011;59039;52.108;19.942;2022-08-25T00:11:25;12.20;;;5.50;;
60919;SDS011;59039;52.108;19.942;2022-08-25T00:13:54;15.50;;;5.50;;
60919;SDS011;59039;52.108;19.942;2022-08-25T00:16:22;16.50;;;5.50;;
60919;SDS011;59039;52.108;19.942;2022-08-25T00:18:54;14.40;;;6.10;;
60919;SDS011;59039;52.108;19.942;2022-08-25T00:21:21;12.10;;;5.30;;
60919;SDS011;59039;52.108;19.942;2022-08-25T00:23:47;17.60;;;6.00;;
60919;SDS011;59039;52.108;19.942;2022-08-25T00:26:13;17.80;;;5.90;;
60919;SDS011;59039;52.108;19.942;2022-08-25T00:28:40;13.10;;;5.80;;
60919;SDS011;59039;52.108;19.942;2022-08-25T00:31:10;12.70;;;5.40;;
60919;SDS011;59039;52.108;19.942;2022-08-25T00:33:39;13.90;;;5.60;;
60919;SDS011;59039;52.108;19.942;2022-08-25T00:36:05;18.50;;;6.40;;
60919;SDS011;59039;52.108;19.942;2022-08-25T00:38:31;14.80;;;6.80;;
60919;SDS011;59039;52.108;19.942;2022-08-25T00:40:56;16.60;;;7.10;;
60919;SDS011;59039;52.108;19.942;2022-08-25T00:43:25;19.70;;;7.80;;
60919;SDS011;59039;52.108;19.942;2022-08-25T00:45:50;17.40;;;6.80;;
60919;SDS011;59039;52.108;19.942;2022-08-25T00:48:15;18.60;;;7.00;;
60919;SDS011;59039;52.108;19.942;2022-08-25T00:50:41;12.60;;;6.30;;
60919;SDS011;59039;52.108;19.942;2022-08-25T00:53:06;13.70;;;6.80;;
60919;SDS011;59039;52.108;19.942;2022-08-25T00:55:36;13.70;;;6.80;;
60919;SDS011;59039;52.108;19.942;2022-08-25T01:01:03;18.70;;;8.10;;
60919;SDS011;59039;52.108;19.942;2022-08-25T01:03:28;15.20;;;8.00;;
60919;SDS011;59039;52.108;19.942;2022-08-25T01:05:56;19.70;;;7.60;;
60919;SDS011;59039;52.108;19.942;2022-08-25T01:08:23;12.90;;;6.90;;
60919;SDS011;59039;52.108;19.942;2022-08-25T01:10:51;16.60;;;6.80;;
60919;SDS011;59039;52.108;19.942;2022-08-25T01:13:25;16.10;;;6.60;;
60919;SDS011;59039;52.108;19.942;2022-08-25T01:16:06;14.50;;;7.10;;
60919;SDS011;59039;52.108;19.942;2022-08-25T01:18:43;13.00;;;7.40;;
60919;SDS011;59039;52.108;19.942;2022-08-25T01:21:12;16.60;;;7.50;;
60919;SDS011;59039;52.108;19.942;2022-08-25T01:23:37;17.10;;;7.70;;
60919;SDS011;59039;52.108;19.942;2022-08-25T01:26:04;15.80;;;8.50;;
60919;SDS011;59039;52.108;19.942;2022-08-25T01:28:34;19.40;;;8.20;;
60919;SDS011;59039;52.108;19.942;2022-08-25T01:31:01;12.20;;;7.00;;
60919;SDS011;59039;52.108;19.942;2022-08-25T01:33:27;12.20;;;6.60;;
60919;SDS011;59039;52.108;19.942;2022-08-25T01:35:52;14.50;;;7.50;;
60919;SDS011;59039;52.108;19.942;2022-08-25T01:38:18;14.80;;;7.70;;
60919;SDS011;59039;52.108;19.942;2022-08-25T01:40:43;12.90;;;6.90;;
60919;SDS011;59039;52.108;19.942;2022-08-25T01:45:34;13.60;;;7.30;;
60919;SDS011;59039;52.108;19.942;2022-08-25T01:48:00;20.20;;;7.70;;
60919;SDS011;59039;52.108;19.942;2022-08-25T01:50:26;16.90;;;7.10;;
60919;SDS011;59039;52.108;19.942;2022-08-25T01:52:57;20.40;;;7.80;;
60919;SDS011;59039;52.108;19.942;2022-08-25T01:55:29;18.60;;;7.80;;
60919;SDS011;59039;52.108;19.942;2022-08-25T01:57:58;14.30;;;7.30;;
60919;SDS011;59039;52.108;19.942;2022-08-25T02:00:23;20.50;;;7.50;;
60919;SDS011;59039;52.108;19.942;2022-08-25T02:02:49;17.30;;;7.60;;
60919;SDS011;59039;52.108;19.942;2022-08-25T02:05:14;19.70;;;7.20;;
60919;SDS011;59039;52.108;19.942;2022-08-25T02:07:43;20.90;;;7.60;;
60919;SDS011;59039;52.108;19.942;2022-08-25T02:10:09;17.50;;;7.30;;
60919;SDS011;59039;52.108;19.942;2022-08-25T02:12:36;9.80;;;5.90;;
60919;SDS011;59039;52.108;19.942;2022-08-25T02:15:03;15.40;;;6.60;;
60919;SDS011;59039;52.108;19.942;2022-08-25T02:17:33;19.50;;;7.00;;
60919;SDS011;59039;52.108;19.942;2022-08-25T02:19:59;17.60;;;6.10;;
60919;SDS011;59039;52.108;19.942;2022-08-25T02:22:29;18.20;;;7.00;;
60919;SDS011;59039;52.108;19.942;2022-08-25T02:24:54;18.90;;;6.50;;
60919;SDS011;59039;52.108;19.942;2022-08-25T02:27:20;19.50;;;6.40;;
60919;SDS011;59039;52.108;19.942;2022-08-25T02:29:45;17.30;;;5.70;;
60919;SDS011;59039;52.108;19.942;2022-08-25T02:32:10;13.70;;;6.20;;
60919;SDS011;59039;52.108;19.942;2022-08-25T02:34:36;21.20;;;6.80;;
60919;SDS011;59039;52.108;19.942;2022-08-25T02:37:01;19.10;;;5.90;;
60919;SDS011;59039;52.108;19.942;2022-08-25T02:39:26;19.80;;;6.80;;
60919;SDS011;59039;52.108;19.942;2022-08-25T02:41:52;14.80;;;6.10;;
60919;SDS011;59039;52.108;19.942;2022-08-25T02:44:17;17.50;;;5.70;;
60919;SDS011;59039;52.108;19.942;2022-08-25T02:46:43;21.70;;;7.00;;
60919;SDS011;59039;52.108;19.942;2022-08-25T02:49:08;15.00;;;6.20;;
60919;SDS011;59039;52.108;19.942;2022-08-25T02:51:34;16.40;;;7.00;;
60919;SDS011;59039;52.108;19.942;2022-08-25T02:54:00;15.90;;;6.50;;
60919;SDS011;59039;52.108;19.942;2022-08-25T02:56:27;16.90;;;5.80;;
60919;SDS011;59039;52.108;19.942;2022-08-25T02:58:54;12.00;;;6.60;;
60919;SDS011;59039;52.108;19.942;2022-08-25T03:01:19;21.30;;;6.90;;
60919;SDS011;59039;52.108;19.942;2022-08-25T03:03:45;16.40;;;6.30;;
60919;SDS011;59039;52.108;19.942;2022-08-25T03:06:12;16.10;;;5.90;;
60919;SDS011;59039;52.108;19.942;2022-08-25T03:08:39;17.00;;;6.10;;
60919;SDS011;59039;52.108;19.942;2022-08-25T03:14:11;16.20;;;5.80;;
60919;SDS011;59039;52.108;19.942;2022-08-25T03:16:37;14.30;;;6.00;;
60919;SDS011;59039;52.108;19.942;2022-08-25T03:19:02;14.30;;;6.50;;
60919;SDS011;59039;52.108;19.942;2022-08-25T03:21:28;15.80;;;6.20;;
60919;SDS011;59039;52.108;19.942;2022-08-25T03:23:57;15.30;;;5.70;;
60919;SDS011;59039;52.108;19.942;2022-08-25T03:26:24;21.40;;;6.70;;
60919;SDS011;59039;52.108;19.942;2022-08-25T03:28:49;15.50;;;6.40;;
60919;SDS011;59039;52.108;19.942;2022-08-25T03:31:15;18.70;;;6.70;;
60919;SDS011;59039;52.108;19.942;2022-08-25T03:33:41;18.50;;;6.90;;
60919;SDS011;59039;52.108;19.942;2022-08-25T03:36:06;17.20;;;6.60;;
60919;SDS011;59039;52.108;19.942;2022-08-25T03:38:32;13.70;;;6.30;;
60919;SDS011;59039;52.108;19.942;2022-08-25T03:40:58;16.90;;;5.70;;
60919;SDS011;59039;52.108;19.942;2022-08-25T03:43:24;13.50;;;6.30;;
60919;SDS011;59039;52.108;19.942;2022-08-25T03:45:50;21.70;;;10.30;;
60919;SDS011;59039;52.108;19.942;2022-08-25T03:48:16;16.50;;;10.40;;
60919;SDS011;59039;52.108;19.942;2022-08-25T03:50:46;29.00;;;16.70;;
60919;SDS011;59039;52.108;19.942;2022-08-25T03:53:13;22.90;;;13.70;;
60919;SDS011;59039;52.108;19.942;2022-08-25T03:55:48;20.30;;;11.40;;
60919;SDS011;59039;52.108;19.942;2022-08-25T03:58:13;22.10;;;9.00;;
60919;SDS011;59039;52.108;19.942;2022-08-25T04:00:48;17.10;;;8.80;;
60919;SDS011;59039;52.108;19.942;2022-08-25T04:03:14;18.60;;;8.40;;
60919;SDS011;59039;52.108;19.942;2022-08-25T04:05:41;14.80;;;8.10;;
60919;SDS011;59039;52.108;19.942;2022-08-25T04:08:07;18.70;;;7.90;;
60919;SDS011;59039;52.108;19.942;2022-08-25T04:10:32;19.20;;;8.30;;
60919;SDS011;59039;52.108;19.942;2022-08-25T04:12:58;15.90;;;7.60;;
60919;SDS011;59039;52.108;19.942;2022-08-25T04:15:23;16.40;;;7.80;;
60919;SDS011;59039;52.108;19.942;2022-08-25T04:17:49;19.20;;;8.70;;
60919;SDS011;59039;52.108;19.942;2022-08-25T04:20:17;17.00;;;7.80;;
60919;SDS011;59039;52.108;19.942;2022-08-25T04:22:43;14.80;;;7.70;;
60919;SDS011;59039;52.108;19.942;2022-08-25T04:25:08;16.20;;;7.40;;
60919;SDS011;59039;52.108;19.942;2022-08-25T04:27:34;16.80;;;8.90;;
60919;SDS011;59039;52.108;19.942;2022-08-25T04:30:00;23.80;;;9.10;;
60919;SDS011;59039;52.108;19.942;2022-08-25T04:32:29;16.20;;;9.00;;
60919;SDS011;59039;52.108;19.942;2022-08-25T04:34:54;20.20;;;8.40;;
60919;SDS011;59039;52.108;19.942;2022-08-25T04:37:19;20.10;;;8.70;;
60919;SDS011;59039;52.108;19.942;2022-08-25T04:39:45;18.30;;;9.10;;
60919;SDS011;59039;52.108;19.942;2022-08-25T04:42:10;17.60;;;8.70;;
60919;SDS011;59039;52.108;19.942;2022-08-25T04:44:35;19.40;;;9.70;;
60919;SDS011;59039;52.108;19.942;2022-08-25T04:47:01;19.00;;;9.70;;
60919;SDS011;59039;52.108;19.942;2022-08-25T04:49:26;22.70;;;10.70;;
60919;SDS011;59039;52.108;19.942;2022-08-25T04:51:52;18.20;;;10.90;;
60919;SDS011;59039;52.108;19.942;2022-08-25T04:54:17;22.90;;;10.10;;
60919;SDS011;59039;52.108;19.942;2022-08-25T04:56:43;19.60;;;10.60;;
60919;SDS011;59039;52.108;19.942;2022-08-25T04:59:09;24.40;;;9.90;;
60919;SDS011;59039;52.108;19.942;2022-08-25T05:01:37;26.30;;;11.60;;
60919;SDS011;59039;52.108;19.942;2022-08-25T05:04:05;21.40;;;10.90;;
60919;SDS011;59039;52.108;19.942;2022-08-25T05:06:32;18.90;;;11.00;;
60919;SDS011;59039;52.108;19.942;2022-08-25T05:08:58;25.00;;;12.20;;
60919;SDS011;59039;52.108;19.942;2022-08-25T05:11:25;26.60;;;11.30;;
60919;SDS011;59039;52.108;19.942;2022-08-25T05:13:52;22.00;;;11.80;;
60919;SDS011;59039;52.108;19.942;2022-08-25T05:16:19;20.90;;;10.90;;
60919;SDS011;59039;52.108;19.942;2022-08-25T05:18:47;22.00;;;11.00;;
60919;SDS011;59039;52.108;19.942;2022-08-25T05:21:13;26.20;;;12.70;;
60919;SDS011;59039;52.108;19.942;2022-08-25T05:23:41;17.50;;;11.60;;
60919;SDS011;59039;52.108;19.942;2022-08-25T05:26:08;22.40;;;11.50;;
60919;SDS011;59039;52.108;19.942;2022-08-25T05:28:37;22.40;;;11.20;;
60919;SDS011;59039;52.108;19.942;2022-08-25T05:31:04;19.40;;;10.10;;
60919;SDS011;59039;52.108;19.942;2022-08-25T05:33:29;17.60;;;10.30;;
60919;SDS011;59039;52.108;19.942;2022-08-25T05:35:54;24.90;;;10.70;;
60919;SDS011;59039;52.108;19.942;2022-08-25T05:38:20;19.30;;;11.30;;
60919;SDS011;59039;52.108;19.942;2022-08-25T05:40:47;16.00;;;10.40;;
60919;SDS011;59039;52.108;19.942;2022-08-25T05:43:16;19.00;;;10.70;;
60919;SDS011;59039;52.108;19.942;2022-08-25T05:45:45;21.70;;;11.30;;
60919;SDS011;59039;52.108;19.942;2022-08-25T05:48:10;18.90;;;11.60;;
60919;SDS011;59039;52.108;19.942;2022-08-25T05:50:35;22.60;;;11.10;;
60919;SDS011;59039;52.108;19.942;2022-08-25T05:53:01;17.70;;;10.70;;
60919;SDS011;59039;52.108;19.942;2022-08-25T05:55:26;19.60;;;11.30;;
60919;SDS011;59039;52.108;19.942;2022-08-25T05:57:51;26.00;;;12.00;;
60919;SDS011;59039;52.108;19.942;2022-08-25T06:00:17;18.30;;;9.80;;
60919;SDS011;59039;52.108;19.942;2022-08-25T06:02:42;21.20;;;10.50;;
60919;SDS011;59039;52.108;19.942;2022-08-25T06:05:11;25.70;;;11.00;;
60919;SDS011;59039;52.108;19.942;2022-08-25T06:07:38;20.50;;;10.80;;
60919;SDS011;59039;52.108;19.942;2022-08-25T06:10:07;19.20;;;10.30;;
60919;SDS011;59039;52.108;19.942;2022-08-25T06:12:33;19.40;;;11.50;;
60919;SDS011;59039;52.108;19.942;2022-08-25T06:14:59;19.60;;;11.20;;
60919;SDS011;59039;52.108;19.942;2022-08-25T06:17:24;20.00;;;10.80;;
60919;SDS011;59039;52.108;19.942;2022-08-25T06:19:49;20.40;;;11.00;;
60919;SDS011;59039;52.108;19.942;2022-08-25T06:22:15;18.10;;;10.00;;
60919;SDS011;59039;52.108;19.942;2022-08-25T06:24:40;19.20;;;10.80;;
60919;SDS011;59039;52.108;19.942;2022-08-25T06:27:05;17.20;;;9.80;;
60919;SDS011;59039;52.108;19.942;2022-08-25T06:29:30;27.50;;;11.10;;
60919;SDS011;59039;52.108;19.942;2022-08-25T06:31:59;23.70;;;10.50;;
60919;SDS011;59039;52.108;19.942;2022-08-25T06:34:24;20.70;;;10.10;;
60919;SDS011;59039;52.108;19.942;2022-08-25T06:36:50;17.40;;;10.10;;
60919;SDS011;59039;52.108;19.942;2022-08-25T06:39:15;22.10;;;10.10;;
60919;SDS011;59039;52.108;19.942;2022-08-25T06:41:41;22.80;;;10.20;;
60919;SDS011;59039;52.108;19.942;2022-08-25T06:44:06;18.10;;;10.20;;
60919;SDS011;59039;52.108;19.942;2022-08-25T06:46:32;28.70;;;10.10;;
60919;SDS011;59039;52.108;19.942;2022-08-25T06:48:58;21.90;;;10.00;;
60919;SDS011;59039;52.108;19.942;2022-08-25T06:51:24;23.10;;;11.40;;
60919;SDS011;59039;52.108;19.942;2022-08-25T06:53:49;25.70;;;10.70;;
60919;SDS011;59039;52.108;19.942;2022-08-25T06:56:18;22.20;;;9.50;;
60919;SDS011;59039;52.108;19.942;2022-08-25T06:58:45;24.10;;;10.70;;
60919;SDS011;59039;52.108;19.942;2022-08-25T07:01:13;23.20;;;10.00;;
60919;SDS011;59039;52.108;19.942;2022-08-25T07:03:40;26.20;;;10.20;;
60919;SDS011;59039;52.108;19.942;2022-08-25T07:06:07;21.30;;;8.90;;
60919;SDS011;59039;52.108;19.942;2022-08-25T07:08:33;31.20;;;9.90;;
60919;SDS011;59039;52.108;19.942;2022-08-25T07:11:03;20.20;;;10.10;;
60919;SDS011;59039;52.108;19.942;2022-08-25T07:13:32;21.40;;;10.30;;
60919;SDS011;59039;52.108;19.942;2022-08-25T07:15:58;19.50;;;10.70;;
60919;SDS011;59039;52.108;19.942;2022-08-25T07:18:24;19.80;;;10.10;;
60919;SDS011;59039;52.108;19.942;2022-08-25T07:20:49;18.20;;;9.60;;
60919;SDS011;59039;52.108;19.942;2022-08-25T07:23:15;21.10;;;10.20;;
60919;SDS011;59039;52.108;19.942;2022-08-25T07:25:40;19.60;;;9.00;;
60919;SDS011;59039;52.108;19.942;2022-08-25T07:28:05;21.10;;;9.90;;
60919;SDS011;59039;52.108;19.942;2022-08-25T07:30:31;21.20;;;9.00;;
60919;SDS011;59039;52.108;19.942;2022-08-25T07:32:56;30.90;;;10.30;;
60919;SDS011;59039;52.108;19.942;2022-08-25T07:35:24;27.60;;;9.80;;
60919;SDS011;59039;52.108;19.942;2022-08-25T07:37:50;27.80;;;9.90;;
60919;SDS011;59039;52.108;19.942;2022-08-25T07:40:21;21.80;;;9.80;;
60919;SDS011;59039;52.108;19.942;2022-08-25T07:42:48;23.90;;;10.80;;
60919;SDS011;59039;52.108;19.942;2022-08-25T07:45:16;23.50;;;11.00;;
60919;SDS011;59039;52.108;19.942;2022-08-25T07:47:42;22.40;;;10.00;;
60919;SDS011;59039;52.108;19.942;2022-08-25T07:50:08;28.20;;;10.40;;
60919;SDS011;59039;52.108;19.942;2022-08-25T07:52:35;25.10;;;10.70;;
60919;SDS011;59039;52.108;19.942;2022-08-25T07:55:01;20.50;;;10.10;;
60919;SDS011;59039;52.108;19.942;2022-08-25T07:57:27;31.20;;;11.30;;
60919;SDS011;59039;52.108;19.942;2022-08-25T07:59:52;28.20;;;12.20;;
60919;SDS011;59039;52.108;19.942;2022-08-25T08:02:21;28.30;;;10.90;;
60919;SDS011;59039;52.108;19.942;2022-08-25T08:04:50;32.70;;;11.20;;
60919;SDS011;59039;52.108;19.942;2022-08-25T08:07:21;26.80;;;10.10;;
60919;SDS011;59039;52.108;19.942;2022-08-25T08:09:50;29.90;;;11.20;;
60919;SDS011;59039;52.108;19.942;2022-08-25T08:12:16;20.10;;;10.00;;
60919;SDS011;59039;52.108;19.942;2022-08-25T08:14:42;30.40;;;10.90;;
60919;SDS011;59039;52.108;19.942;2022-08-25T08:17:07;29.70;;;11.00;;
60919;SDS011;59039;52.108;19.942;2022-08-25T08:19:34;25.90;;;10.70;;
60919;SDS011;59039;52.108;19.942;2022-08-25T08:22:00;32.10;;;11.70;;
60919;SDS011;59039;52.108;19.942;2022-08-25T08:24:27;31.60;;;10.90;;
60919;SDS011;59039;52.108;19.942;2022-08-25T08:26:54;21.50;;;10.50;;
60919;SDS011;59039;52.108;19.942;2022-08-25T08:29:20;24.50;;;10.40;;
60919;SDS011;59039;52.108;19.942;2022-08-25T08:31:45;21.00;;;10.30;;
60919;SDS011;59039;52.108;19.942;2022-08-25T08:34:10;25.80;;;10.50;;
60919;SDS011;59039;52.108;19.942;2022-08-25T08:36:35;20.70;;;11.10;;
60919;SDS011;59039;52.108;19.942;2022-08-25T08:39:00;24.10;;;11.90;;
60919;SDS011;59039;52.108;19.942;2022-08-25T08:44:23;23.00;;;10.80;;
60919;SDS011;59039;52.108;19.942;2022-08-25T08:50:02;27.60;;;11.80;;
60919;SDS011;59039;52.108;19.942;2022-08-25T08:55:39;33.00;;;11.60;;
60919;SDS011;59039;52.108;19.942;2022-08-25T08:58:16;33.00;;;11.40;;
60919;SDS011;59039;52.108;19.942;2022-08-25T09:00:47;28.00;;;12.20;;
60919;SDS011;59039;52.108;19.942;2022-08-25T09:03:22;28.20;;;11.50;;
60919;SDS011;59039;52.108;19.942;2022-08-25T09:05:55;29.90;;;11.30;;
60919;SDS011;59039;52.108;19.942;2022-08-25T09:08:25;26.60;;;11.80;;
60919;SDS011;59039;52.108;19.942;2022-08-25T09:13:56;18.00;;;10.00;;
60919;SDS011;59039;52.108;19.942;2022-08-25T09:19:27;29.70;;;13.20;;
60919;SDS011;59039;52.108;19.942;2022-08-25T09:25:07;29.50;;;11.50;;
60919;SDS011;59039;52.108;19.942;2022-08-25T09:30:22;26.50;;;12.40;;
60919;SDS011;59039;52.108;19.942;2022-08-25T09:32:49;25.30;;;11.00;;
60919;SDS011;59039;52.108;19.942;2022-08-25T09:35:20;34.50;;;12.30;;
60919;SDS011;59039;52.108;19.942;2022-08-25T09:40:20;25.60;;;11.80;;
60919;SDS011;59039;52.108;19.942;2022-08-25T09:42:50;35.00;;;12.00;;
60919;SDS011;59039;52.108;19.942;2022-08-25T09:45:29;29.80;;;12.00;;
60919;SDS011;59039;52.108;19.942;2022-08-25T09:50:58;27.80;;;11.60;;
60919;SDS011;59039;52.108;19.942;2022-08-25T09:53:26;25.40;;;11.30;;
60919;SDS011;59039;52.108;19.942;2022-08-25T09:55:59;31.30;;;12.20;;
60919;SDS011;59039;52.108;19.942;2022-08-25T09:58:26;28.70;;;12.00;;
60919;SDS011;59039;52.108;19.942;2022-08-25T10:00:59;29.90;;;12.30;;
60919;SDS011;59039;52.108;19.942;2022-08-25T10:03:27;26.60;;;11.50;;
60919;SDS011;59039;52.108;19.942;2022-08-25T10:05:57;36.40;;;13.30;;
60919;SDS011;59039;52.108;19.942;2022-08-25T10:08:39;22.20;;;10.70;;
60919;SDS011;59039;52.108;19.942;2022-08-25T10:11:09;21.00;;;11.70;;
60919;SDS011;59039;52.108;19.942;2022-08-25T10:13:38;24.10;;;13.10;;
60919;SDS011;59039;52.108;19.942;2022-08-25T10:16:08;30.10;;;13.80;;
60919;SDS011;59039;52.108;19.942;2022-08-25T10:18:36;28.40;;;13.00;;
60919;SDS011;59039;52.108;19.942;2022-08-25T10:21:07;33.60;;;13.00;;
60919;SDS011;59039;52.108;19.942;2022-08-25T10:23:47;28.20;;;12.70;;
60919;SDS011;59039;52.108;19.942;2022-08-25T10:34:45;23.40;;;11.90;;
60919;SDS011;59039;52.108;19.942;2022-08-25T10:40:24;30.10;;;12.80;;
60919;SDS011;59039;52.108;19.942;2022-08-25T10:45:58;24.10;;;11.10;;
60919;SDS011;59039;52.108;19.942;2022-08-25T10:56:14;31.70;;;12.80;;
60919;SDS011;59039;52.108;19.942;2022-08-25T10:58:46;38.00;;;13.30;;
60919;SDS011;59039;52.108;19.942;2022-08-25T11:01:24;24.40;;;12.60;;
60919;SDS011;59039;52.108;19.942;2022-08-25T11:04:05;27.70;;;12.50;;
60919;SDS011;59039;52.108;19.942;2022-08-25T11:09:28;25.50;;;11.30;;
60919;SDS011;59039;52.108;19.942;2022-08-25T11:11:59;27.30;;;12.00;;
60919;SDS011;59039;52.108;19.942;2022-08-25T11:14:32;25.40;;;12.40;;
60919;SDS011;59039;52.108;19.942;2022-08-25T11:19:49;20.60;;;11.50;;
60919;SDS011;59039;52.108;19.942;2022-08-25T11:25:24;23.60;;;11.90;;
60919;SDS011;59039;52.108;19.942;2022-08-25T11:28:02;38.50;;;14.20;;
60919;SDS011;59039;52.108;19.942;2022-08-25T11:30:42;27.10;;;12.00;;
60919;SDS011;59039;52.108;19.942;2022-08-25T11:33:11;27.20;;;11.40;;
60919;SDS011;59039;52.108;19.942;2022-08-25T11:35:54;29.40;;;11.90;;
60919;SDS011;59039;52.108;19.942;2022-08-25T11:38:46;35.50;;;12.60;;
60919;SDS011;59039;52.108;19.942;2022-08-25T11:46:44;30.70;;;11.60;;
60919;SDS011;59039;52.108;19.942;2022-08-25T11:55:14;30.30;;;12.50;;
60919;SDS011;59039;52.108;19.942;2022-08-25T11:57:44;27.90;;;10.80;;
60919;SDS011;59039;52.108;19.942;2022-08-25T12:00:34;24.20;;;11.90;;
60919;SDS011;59039;52.108;19.942;2022-08-25T12:27:08;31.60;;;11.20;;
60919;SDS011;59039;52.108;19.942;2022-08-25T12:32:37;26.90;;;11.70;;
60919;SDS011;59039;52.108;19.942;2022-08-25T12:35:27;20.80;;;11.10;;
60919;SDS011;59039;52.108;19.942;2022-08-25T12:37:56;23.30;;;11.70;;
60919;SDS011;59039;52.108;19.942;2022-08-25T12:40:38;21.20;;;10.50;;
60919;SDS011;59039;52.108;19.942;2022-08-25T12:43:24;25.80;;;11.20;;
60919;SDS011;59039;52.108;19.942;2022-08-25T12:52:14;27.30;;;11.30;;
60919;SDS011;59039;52.108;19.942;2022-08-25T12:54:51;20.30;;;10.90;;
60919;SDS011;59039;52.108;19.942;2022-08-25T12:57:22;22.90;;;10.90;;
60919;SDS011;59039;52.108;19.942;2022-08-25T13:00:11;32.10;;;10.80;;
60919;SDS011;59039;52.108;19.942;2022-08-25T13:02:57;29.80;;;13.00;;
60919;SDS011;59039;52.108;19.942;2022-08-25T13:11:31;23.80;;;10.70;;
60919;SDS011;59039;52.108;19.942;2022-08-25T13:16:38;28.70;;;10.60;;
60919;SDS011;59039;52.108;19.942;2022-08-25T13:19:04;22.20;;;10.80;;
60919;SDS011;59039;52.108;19.942;2022-08-25T13:21:35;25.70;;;11.20;;
60919;SDS011;59039;52.108;19.942;2022-08-25T13:26:36;28.00;;;10.60;;
60919;SDS011;59039;52.108;19.942;2022-08-25T13:31:31;25.60;;;9.50;;
60919;SDS011;59039;52.108;19.942;2022-08-25T13:33:59;33.70;;;11.00;;
60919;SDS011;59039;52.108;19.942;2022-08-25T13:36:27;20.00;;;9.80;;
60919;SDS011;59039;52.108;19.942;2022-08-25T13:38:54;20.20;;;10.20;;
60919;SDS011;59039;52.108;19.942;2022-08-25T13:41:35;20.30;;;10.90;;
60919;SDS011;59039;52.108;19.942;2022-08-25T13:44:00;24.10;;;10.40;;
60919;SDS011;59039;52.108;19.942;2022-08-25T13:46:26;25.40;;;10.20;;
60919;SDS011;59039;52.108;19.942;2022-08-25T13:49:00;24.20;;;10.60;;
60919;SDS011;59039;52.108;19.942;2022-08-25T13:51:28;21.00;;;10.90;;
60919;SDS011;59039;52.108;19.942;2022-08-25T13:53:55;22.40;;;10.60;;
60919;SDS011;59039;52.108;19.942;2022-08-25T13:56:23;21.70;;;10.40;;
60919;SDS011;59039;52.108;19.942;2022-08-25T13:58:50;28.90;;;10.30;;
60919;SDS011;59039;52.108;19.942;2022-08-25T14:01:22;22.60;;;10.40;;
60919;SDS011;59039;52.108;19.942;2022-08-25T14:03:50;28.70;;;11.60;;
60919;SDS011;59039;52.108;19.942;2022-08-25T14:06:22;17.60;;;9.30;;
60919;SDS011;59039;52.108;19.942;2022-08-25T14:11:29;21.70;;;9.70;;
60919;SDS011;59039;52.108;19.942;2022-08-25T14:16:49;18.90;;;9.50;;
60919;SDS011;59039;52.108;19.942;2022-08-25T14:19:17;24.50;;;9.60;;
60919;SDS011;59039;52.108;19.942;2022-08-25T14:21:46;18.00;;;9.90;;
60919;SDS011;59039;52.108;19.942;2022-08-25T14:24:19;22.50;;;10.50;;
60919;SDS011;59039;52.108;19.942;2022-08-25T14:26:46;23.00;;;9.20;;
60919;SDS011;59039;52.108;19.942;2022-08-25T14:29:13;31.20;;;12.80;;
60919;SDS011;59039;52.108;19.942;2022-08-25T14:31:40;24.50;;;9.50;;
60919;SDS011;59039;52.108;19.942;2022-08-25T14:34:20;18.80;;;9.10;;
60919;SDS011;59039;52.108;19.942;2022-08-25T14:36:48;20.70;;;8.50;;
60919;SDS011;59039;52.108;19.942;2022-08-25T14:39:14;24.20;;;9.50;;
60919;SDS011;59039;52.108;19.942;2022-08-25T14:41:40;20.90;;;9.60;;
60919;SDS011;59039;52.108;19.942;2022-08-25T14:44:13;19.60;;;8.80;;
60919;SDS011;59039;52.108;19.942;2022-08-25T14:46:43;23.90;;;9.60;;
60919;SDS011;59039;52.108;19.942;2022-08-25T14:49:24;22.00;;;9.20;;
60919;SDS011;59039;52.108;19.942;2022-08-25T14:51:52;20.20;;;8.40;;
60919;SDS011;59039;52.108;19.942;2022-08-25T14:54:18;20.60;;;9.90;;
60919;SDS011;59039;52.108;19.942;2022-08-25T14:56:46;28.20;;;9.10;;
60919;SDS011;59039;52.108;19.942;2022-08-25T14:59:12;24.10;;;8.00;;
60919;SDS011;59039;52.108;19.942;2022-08-25T15:01:37;20.10;;;7.80;;
60919;SDS011;59039;52.108;19.942;2022-08-25T15:04:04;12.70;;;6.30;;
60919;SDS011;59039;52.108;19.942;2022-08-25T15:06:33;13.20;;;5.90;;
60919;SDS011;59039;52.108;19.942;2022-08-25T15:09:00;10.70;;;5.90;;
60919;SDS011;59039;52.108;19.942;2022-08-25T15:11:25;11.20;;;5.50;;
60919;SDS011;59039;52.108;19.942;2022-08-25T15:13:51;10.10;;;5.70;;
60919;SDS011;59039;52.108;19.942;2022-08-25T15:16:21;12.10;;;5.40;;
60919;SDS011;59039;52.108;19.942;2022-08-25T15:18:48;11.20;;;5.20;;
60919;SDS011;59039;52.108;19.942;2022-08-25T15:21:14;16.90;;;5.90;;
60919;SDS011;59039;52.108;19.942;2022-08-25T15:23:39;12.80;;;5.30;;
60919;SDS011;59039;52.108;19.942;2022-08-25T15:26:05;11.10;;;5.30;;
60919;SDS011;59039;52.108;19.942;2022-08-25T15:28:34;10.70;;;5.90;;
60919;SDS011;59039;52.108;19.942;2022-08-25T15:30:59;16.90;;;6.30;;
60919;SDS011;59039;52.108;19.942;2022-08-25T15:33:25;13.90;;;5.80;;
60919;SDS011;59039;52.108;19.942;2022-08-25T15:35:50;14.10;;;5.90;;
60919;SDS011;59039;52.108;19.942;2022-08-25T15:38:15;16.60;;;6.00;;
60919;SDS011;59039;52.108;19.942;2022-08-25T15:40:41;13.00;;;6.30;;
60919;SDS011;59039;52.108;19.942;2022-08-25T15:45:53;17.60;;;6.50;;
60919;SDS011;59039;52.108;19.942;2022-08-25T15:48:18;11.50;;;5.20;;
60919;SDS011;59039;52.108;19.942;2022-08-25T15:50:44;14.20;;;6.40;;
60919;SDS011;59039;52.108;19.942;2022-08-25T15:53:09;9.90;;;5.20;;
60919;SDS011;59039;52.108;19.942;2022-08-25T15:55:36;11.80;;;5.70;;
60919;SDS011;59039;52.108;19.942;2022-08-25T15:58:02;14.90;;;6.40;;
60919;SDS011;59039;52.108;19.942;2022-08-25T16:00:28;9.30;;;5.20;;
60919;SDS011;59039;52.108;19.942;2022-08-25T16:02:53;14.30;;;5.40;;
60919;SDS011;59039;52.108;19.942;2022-08-25T16:05:18;13.70;;;5.90;;
60919;SDS011;59039;52.108;19.942;2022-08-25T16:07:44;13.90;;;6.60;;
60919;SDS011;59039;52.108;19.942;2022-08-25T16:10:09;12.90;;;5.50;;
60919;SDS011;59039;52.108;19.942;2022-08-25T16:12:34;10.20;;;5.60;;
60919;SDS011;59039;52.108;19.942;2022-08-25T16:15:00;13.90;;;5.90;;
60919;SDS011;59039;52.108;19.942;2022-08-25T16:17:25;12.80;;;6.30;;
60919;SDS011;59039;52.108;19.942;2022-08-25T16:19:51;14.30;;;6.30;;
60919;SDS011;59039;52.108;19.942;2022-08-25T16:22:16;14.90;;;6.10;;
60919;SDS011;59039;52.108;19.942;2022-08-25T16:24:46;10.70;;;5.90;;
60919;SDS011;59039;52.108;19.942;2022-08-25T16:27:12;13.40;;;5.70;;
60919;SDS011;59039;52.108;19.942;2022-08-25T16:29:38;12.60;;;5.60;;
60919;SDS011;59039;52.108;19.942;2022-08-25T16:32:05;11.20;;;5.70;;
60919;SDS011;59039;52.108;19.942;2022-08-25T16:34:32;11.10;;;6.00;;
60919;SDS011;59039;52.108;19.942;2022-08-25T16:36:58;10.90;;;5.80;;